createdAt,value
2022-11-04T00:00:28.631Z,61.93
2022-11-04T00:02:34.459Z,61.41
2022-11-04T00:04:36.902Z,61.54
2022-11-04T00:06:39.614Z,61.47
2022-11-04T00:08:42.227Z,61.36
2022-11-04T00:11:05.495Z,61.40
2022-11-04T00:13:07.935Z,61.73
2022-11-04T00:15:28.896Z,61.72
2022-11-04T00:18:45.669Z,62.15
2022-11-04T00:21:06.402Z,61.87
2022-11-04T00:23:27.093Z,61.39
2022-11-04T00:25:48.058Z,61.74
2022-11-04T00:28:09.256Z,61.85
2022-11-04T00:30:11.911Z,61.71
2022-11-04T00:36:38.952Z,62.13
2022-11-04T00:38:41.154Z,61.53
2022-11-04T00:40:43.705Z,61.64
2022-11-04T00:42:46.902Z,61.73
2022-11-04T00:44:49.094Z,61.80
2022-11-04T00:46:51.437Z,61.57
2022-11-04T00:48:54.470Z,61.57
2022-11-04T00:50:57.720Z,61.82
2022-11-04T00:53:03.426Z,61.60
2022-11-04T00:55:06.214Z,61.41
2022-11-04T00:57:14.399Z,61.59
2022-11-04T00:59:16.890Z,61.12
2022-11-04T01:01:20.238Z,61.36
2022-11-04T01:03:22.418Z,60.74
2022-11-04T01:05:24.740Z,60.87
2022-11-04T01:07:29.625Z,60.62
2022-11-04T01:09:31.919Z,60.57
2022-11-04T01:11:34.847Z,60.77
2022-11-04T01:14:26.787Z,60.43
2022-11-04T01:16:32.620Z,60.47
2022-11-04T01:18:35.365Z,60.46
2022-11-04T01:20:37.649Z,60.61
2022-11-04T01:22:39.893Z,60.71
2022-11-04T01:24:42.266Z,60.90
2022-11-04T01:26:44.527Z,60.29
2022-11-04T01:28:47.137Z,60.71
2022-11-04T01:30:49.695Z,60.65
2022-11-04T01:32:52.022Z,61.05
2022-11-04T01:34:54.200Z,61.25
2022-11-04T01:36:56.352Z,61.12
2022-11-04T01:38:58.771Z,61.73
2022-11-04T01:41:01.993Z,61.34
2022-11-04T01:43:04.865Z,61.65
2022-11-04T01:45:15.254Z,61.74
2022-11-04T01:47:27.128Z,61.92
2022-11-04T01:49:40.733Z,61.92
2022-11-04T01:51:49.191Z,61.13
2022-11-04T01:53:55.384Z,61.18
2022-11-04T01:56:00.810Z,60.90
2022-11-04T01:58:07.609Z,61.18
2022-11-04T02:00:11.258Z,61.20
2022-11-04T02:02:16.639Z,60.81
2022-11-04T02:04:28.582Z,61.14
2022-11-04T02:06:30.900Z,61.04
2022-11-04T02:08:34.263Z,61.22
2022-11-04T02:10:39.108Z,60.96
2022-11-04T02:12:50.013Z,61.04
2022-11-04T02:14:53.936Z,61.08
2022-11-04T02:17:19.104Z,60.78
2022-11-04T02:19:52.107Z,60.79
2022-11-04T02:22:33.299Z,60.21
2022-11-04T02:24:54.124Z,60.21
2022-11-04T02:27:04.106Z,60.34
2022-11-04T02:29:32.002Z,60.25
2022-11-04T02:32:01.156Z,60.46
2022-11-04T02:34:42.079Z,60.30
2022-11-04T02:36:57.420Z,60.26
2022-11-04T02:39:14.765Z,60.57
2022-11-04T02:41:35.572Z,60.20
2022-11-04T02:43:45.931Z,60.70
2022-11-04T02:45:51.581Z,60.38
2022-11-04T02:48:16.914Z,60.37
2022-11-04T02:50:48.014Z,60.21
2022-11-04T02:53:02.074Z,59.96
2022-11-04T02:55:11.939Z,59.93
2022-11-04T02:57:20.018Z,59.41
2022-11-04T02:59:46.425Z,59.09
2022-11-04T03:01:51.664Z,59.40
2022-11-04T03:04:01.575Z,59.09
2022-11-04T03:06:05.118Z,58.71
2022-11-04T03:08:15.855Z,58.74
2022-11-04T03:10:31.215Z,58.71
2022-11-04T03:12:40.517Z,58.52
2022-11-04T03:14:48.637Z,58.30
2022-11-04T03:17:01.779Z,58.34
2022-11-04T03:19:06.801Z,58.24
2022-11-04T03:21:11.610Z,57.98
2022-11-04T03:27:05.339Z,58.13
2022-11-04T03:29:29.319Z,57.99
2022-11-04T03:32:02.491Z,58.09
2022-11-04T03:34:05.024Z,57.70
2022-11-04T03:36:09.089Z,57.59
2022-11-04T03:38:14.369Z,57.52
2022-11-04T03:40:19.629Z,56.88
2022-11-04T03:42:24.055Z,57.16
2022-11-04T03:44:27.364Z,56.48
2022-11-04T03:46:29.987Z,57.10
2022-11-04T03:48:32.642Z,56.93
2022-11-04T03:50:42.192Z,56.09
2022-11-04T03:52:44.676Z,56.75
2022-11-04T03:54:47.833Z,56.34
2022-11-04T03:57:18.723Z,56.19
2022-11-04T03:59:23.956Z,56.11
2022-11-04T04:01:50.496Z,56.38
2022-11-04T04:03:59.968Z,56.77
2022-11-04T04:06:20.005Z,56.63
2022-11-04T04:08:46.223Z,56.79
2022-11-04T04:11:03.378Z,56.91
2022-11-04T04:13:44.726Z,56.41
2022-11-04T04:15:54.345Z,56.31
2022-11-04T04:18:01.849Z,56.49
2022-11-04T04:20:18.802Z,56.38
2022-11-04T04:22:25.394Z,56.59
2022-11-04T04:24:54.018Z,56.63
2022-11-04T04:27:15.780Z,56.45
2022-11-04T04:29:21.557Z,56.77
2022-11-04T04:31:44.378Z,56.98
2022-11-04T04:33:46.979Z,56.96
2022-11-04T04:35:57.196Z,56.54
2022-11-04T04:38:24.686Z,56.30
2022-11-04T04:40:49.645Z,56.21
2022-11-04T04:43:11.973Z,56.17
2022-11-04T04:45:29.124Z,55.98
2022-11-04T04:47:45.525Z,55.61
2022-11-04T04:49:56.102Z,55.46
2022-11-04T04:51:58.194Z,55.64
2022-11-04T04:54:00.503Z,55.71
2022-11-04T04:56:02.700Z,55.43
2022-11-04T04:58:05.194Z,55.83
2022-11-04T05:00:10.563Z,55.27
2022-11-04T05:02:12.878Z,55.40
2022-11-04T05:04:15.304Z,55.76
2022-11-04T05:06:17.861Z,55.71
2022-11-04T05:08:19.927Z,55.62
2022-11-04T05:10:22.347Z,55.23
2022-11-04T05:12:26.023Z,55.45
2022-11-04T05:14:29.140Z,55.61
2022-11-04T05:16:31.269Z,54.77
2022-11-04T05:22:28.713Z,53.68
2022-11-04T05:24:30.989Z,53.98
2022-11-04T05:26:33.139Z,53.88
2022-11-04T05:28:35.713Z,53.69
2022-11-04T05:30:37.885Z,53.38
2022-11-04T05:32:40.026Z,52.66
2022-11-04T05:34:42.501Z,52.50
2022-11-04T05:36:45.068Z,52.51
2022-11-04T05:38:51.816Z,52.46
2022-11-04T05:40:53.982Z,52.24
2022-11-04T05:42:58.409Z,53.00
2022-11-04T05:45:00.305Z,52.96
2022-11-04T05:47:02.283Z,53.29
2022-11-04T05:49:05.287Z,53.52
2022-11-04T05:51:12.978Z,53.59
2022-11-04T05:53:15.225Z,53.68
2022-11-04T05:55:17.307Z,53.82
2022-11-04T05:57:19.175Z,53.75
2022-11-04T05:59:21.082Z,53.38
2022-11-04T06:01:27.269Z,53.70
2022-11-04T06:03:29.990Z,54.07
2022-11-04T06:05:32.258Z,54.18
2022-11-04T06:07:34.220Z,54.28
2022-11-04T06:09:41.854Z,53.84
2022-11-04T06:11:43.881Z,53.81
2022-11-04T06:13:46.074Z,53.44
2022-11-04T06:15:48.017Z,53.45
2022-11-04T06:17:49.976Z,53.58
2022-11-04T06:19:51.932Z,53.09
2022-11-04T06:21:53.912Z,53.49
2022-11-04T06:23:57.701Z,53.36
2022-11-04T06:25:59.574Z,53.62
2022-11-04T06:28:04.451Z,53.55
2022-11-04T06:30:07.141Z,53.45
2022-11-04T06:32:10.898Z,52.65
2022-11-04T06:34:12.786Z,53.19
2022-11-04T06:36:16.336Z,53.30
2022-11-04T06:42:27.835Z,53.31
2022-11-04T06:44:30.013Z,52.56
2022-11-04T06:46:42.671Z,53.04
2022-11-04T06:48:45.148Z,53.11
2022-11-04T06:50:47.373Z,53.12
2022-11-04T06:52:49.422Z,52.75
2022-11-04T06:54:51.566Z,52.56
2022-11-04T06:56:53.437Z,52.03
2022-11-04T06:58:56.182Z,52.16
2022-11-04T07:00:58.381Z,52.68
2022-11-04T07:03:00.846Z,52.27
2022-11-04T07:05:03.166Z,51.95
2022-11-04T07:07:05.648Z,51.52
2022-11-04T07:09:07.626Z,52.16
2022-11-04T07:11:09.940Z,51.61
2022-11-04T07:13:11.961Z,52.06
2022-11-04T07:15:14.406Z,51.77
2022-11-04T07:17:19.308Z,51.84
2022-11-04T07:19:21.248Z,51.39
2022-11-04T07:21:25.226Z,52.05
2022-11-04T07:23:27.329Z,51.66
2022-11-04T07:25:32.995Z,51.55
2022-11-04T07:27:35.005Z,51.56
2022-11-04T07:29:37.339Z,51.89
2022-11-04T07:31:43.678Z,52.07
2022-11-04T07:33:50.138Z,52.23
2022-11-04T07:35:57.956Z,52.41
2022-11-04T07:38:00.200Z,52.74
2022-11-04T07:40:02.178Z,52.66
2022-11-04T07:42:04.231Z,52.47
2022-11-04T07:44:06.372Z,52.97
2022-11-04T07:46:12.089Z,53.02
2022-11-04T07:48:14.399Z,53.07
2022-11-04T07:50:19.133Z,52.84
2022-11-04T07:52:21.320Z,53.36
2022-11-04T07:54:23.087Z,52.84
2022-11-04T07:56:25.817Z,52.93
2022-11-04T07:58:29.485Z,52.77
2022-11-04T08:00:31.631Z,53.18
2022-11-04T08:02:35.358Z,53.12
2022-11-04T08:04:38.075Z,52.61
2022-11-04T08:06:42.343Z,52.51
2022-11-04T08:08:45.006Z,53.04
2022-11-04T08:10:53.169Z,52.63
2022-11-04T08:12:58.270Z,52.74
2022-11-04T08:15:00.907Z,53.04
2022-11-04T08:17:03.007Z,53.11
2022-11-04T08:19:05.136Z,52.58
2022-11-04T08:21:07.907Z,52.26
2022-11-04T08:23:12.428Z,52.36
2022-11-04T08:25:14.696Z,52.42
2022-11-04T08:27:17.008Z,51.80
2022-11-04T08:29:19.298Z,52.70
2022-11-04T08:31:26.989Z,52.64
2022-11-04T08:33:31.161Z,52.75
2022-11-04T08:36:02.634Z,52.64
2022-11-04T08:38:04.878Z,52.79
2022-11-04T08:40:07.840Z,52.80
2022-11-04T08:42:10.040Z,52.51
2022-11-04T08:48:06.133Z,52.76
2022-11-04T08:50:08.336Z,52.36
2022-11-04T08:52:10.271Z,52.97
2022-11-04T08:54:12.149Z,53.08
2022-11-04T08:56:29.059Z,53.16
2022-11-04T08:58:30.902Z,53.77
2022-11-04T09:00:33.195Z,53.90
2022-11-04T09:02:35.120Z,54.01
2022-11-04T09:04:37.256Z,54.14
2022-11-04T09:06:42.731Z,54.14
2022-11-04T09:08:44.877Z,54.11
2022-11-04T09:10:48.190Z,54.50
2022-11-04T09:12:50.250Z,54.57
2022-11-04T09:14:52.200Z,54.71
2022-11-04T09:16:56.718Z,54.46
2022-11-04T09:18:59.618Z,54.71
2022-11-04T09:21:06.847Z,54.76
2022-11-04T09:23:09.906Z,54.66
2022-11-04T09:25:12.135Z,53.33
2022-11-04T09:27:14.971Z,54.06
2022-11-04T09:29:17.312Z,54.05
2022-11-04T09:31:20.012Z,53.87
2022-11-04T09:33:21.950Z,53.38
2022-11-04T09:35:24.116Z,53.26
2022-11-04T09:37:25.988Z,53.77
2022-11-04T09:39:30.541Z,53.91
2022-11-04T09:41:57.468Z,52.64
2022-11-04T09:44:11.747Z,53.05
2022-11-04T09:46:14.907Z,53.16
2022-11-04T09:48:30.212Z,52.97
2022-11-04T09:50:49.544Z,53.41
2022-11-04T09:52:59.073Z,53.49
2022-11-04T09:55:15.818Z,53.15
2022-11-04T09:57:19.448Z,53.06
2022-11-04T09:59:28.979Z,52.63
2022-11-04T10:01:52.536Z,52.71
2022-11-04T10:04:25.270Z,52.50
2022-11-04T10:06:55.269Z,52.26
2022-11-04T10:09:30.260Z,52.83
2022-11-04T10:11:32.315Z,53.31
2022-11-04T10:14:15.825Z,53.72
2022-11-04T10:16:42.693Z,53.88
2022-11-04T10:19:16.554Z,53.96
2022-11-04T10:21:21.533Z,53.80
2022-11-04T10:23:29.128Z,53.68
2022-11-04T10:25:43.204Z,54.27
2022-11-04T10:27:47.379Z,54.20
2022-11-04T10:29:55.303Z,54.55
2022-11-04T10:32:00.804Z,54.69
2022-11-04T10:34:23.920Z,54.21
2022-11-04T10:36:27.410Z,54.15
2022-11-04T10:38:41.837Z,54.24
2022-11-04T10:40:48.460Z,53.87
2022-11-04T10:42:51.951Z,54.46
2022-11-04T10:44:54.025Z,53.80
2022-11-04T10:47:03.451Z,53.92
2022-11-04T10:49:29.815Z,53.09
2022-11-04T10:54:54.154Z,52.54
2022-11-04T10:56:57.261Z,52.60
2022-11-04T10:59:20.006Z,52.43
2022-11-04T11:01:26.202Z,52.11
2022-11-04T11:03:33.745Z,52.04
2022-11-04T11:05:35.871Z,52.15
2022-11-04T11:07:38.381Z,52.00
2022-11-04T11:09:54.012Z,51.61
2022-11-04T11:12:36.328Z,51.10
2022-11-04T11:14:28.869Z,51.54
2022-11-04T11:16:32.067Z,51.38
2022-11-04T11:18:34.258Z,51.59
2022-11-04T11:21:39.299Z,50.71
2022-11-04T11:23:54.752Z,50.71
2022-11-04T11:25:56.753Z,51.09
2022-11-04T11:28:01.693Z,49.87
2022-11-04T11:30:04.211Z,50.30
2022-11-04T11:32:22.920Z,50.04
2022-11-04T11:34:34.898Z,49.67
2022-11-04T11:36:38.932Z,49.81
2022-11-04T11:39:28.187Z,48.32
2022-11-04T11:41:31.872Z,49.28
2022-11-04T11:43:36.902Z,48.40
2022-11-04T11:45:40.181Z,49.74
2022-11-04T11:47:42.551Z,49.78
2022-11-04T11:49:44.890Z,49.38
2022-11-04T11:51:47.021Z,49.96
2022-11-04T11:54:13.462Z,48.93
2022-11-04T11:56:45.841Z,48.65
2022-11-04T12:02:07.456Z,47.70
2022-11-04T12:09:16.928Z,47.82
2022-11-04T12:11:49.097Z,47.20
2022-11-04T12:13:57.204Z,47.97
2022-11-04T12:16:31.554Z,46.56
2022-11-04T12:19:01.223Z,46.81
2022-11-04T12:21:21.588Z,46.74
2022-11-04T12:23:55.834Z,46.40
2022-11-04T12:26:02.114Z,47.11
2022-11-04T12:28:10.086Z,47.41
2022-11-04T12:30:24.029Z,46.94
2022-11-04T12:32:30.375Z,47.49
2022-11-04T12:34:54.327Z,47.02
2022-11-04T12:37:04.570Z,47.47
2022-11-04T12:39:28.774Z,45.75
2022-11-04T12:42:06.734Z,45.70
2022-11-04T12:44:07.763Z,46.07
2022-11-04T12:46:16.124Z,46.33
2022-11-04T12:48:55.906Z,45.03
2022-11-04T12:51:08.581Z,45.20
2022-11-04T12:53:16.329Z,44.28
2022-11-04T12:55:30.517Z,44.18
2022-11-04T12:57:46.566Z,44.75
2022-11-04T13:00:10.526Z,43.29
2022-11-04T13:02:38.270Z,43.57
2022-11-04T13:04:47.713Z,43.98
2022-11-04T13:07:28.498Z,43.36
2022-11-04T13:09:38.120Z,44.01
2022-11-04T13:11:45.915Z,44.43
2022-11-04T13:13:57.489Z,44.26
2022-11-04T13:16:09.888Z,43.99
2022-11-04T13:18:17.735Z,44.40
2022-11-04T13:20:36.548Z,43.99
2022-11-04T13:22:39.642Z,43.89
2022-11-04T13:25:00.527Z,43.93
2022-11-04T13:27:15.971Z,44.16
2022-11-04T13:29:21.615Z,44.22
2022-11-04T13:31:33.205Z,43.76
2022-11-04T13:33:54.200Z,43.53
2022-11-04T13:35:56.107Z,44.28
2022-11-04T13:38:16.388Z,43.93
2022-11-04T13:40:27.567Z,43.63
2022-11-04T13:43:21.645Z,43.14
2022-11-04T13:45:23.873Z,44.01
2022-11-04T13:47:34.135Z,42.65
2022-11-04T13:49:37.629Z,43.13
2022-11-04T13:51:43.383Z,42.87
2022-11-04T13:53:51.765Z,42.64
2022-11-04T13:56:09.478Z,42.92
2022-11-04T13:58:28.109Z,42.63
2022-11-04T14:00:32.387Z,43.30
2022-11-04T14:02:41.350Z,43.18
2022-11-04T14:04:44.613Z,43.29
2022-11-04T14:07:02.105Z,42.74
2022-11-04T14:09:29.312Z,42.92
2022-11-04T14:11:34.833Z,43.61
2022-11-04T14:13:46.166Z,43.65
2022-11-04T14:16:09.963Z,42.69
2022-11-04T14:18:30.548Z,42.78
2022-11-04T14:24:16.605Z,43.61
2022-11-04T14:26:23.059Z,43.24
2022-11-04T14:28:30.268Z,43.13
2022-11-04T14:30:50.809Z,43.17
2022-11-04T14:32:58.839Z,43.47
2022-11-04T14:35:04.595Z,43.91
2022-11-04T14:37:15.466Z,43.99
2022-11-04T14:39:24.566Z,44.33
2022-11-04T14:41:29.594Z,44.73
2022-11-04T14:43:35.342Z,45.30
2022-11-04T14:45:40.221Z,45.54
2022-11-04T14:47:43.563Z,45.62
2022-11-04T14:49:52.875Z,46.17
2022-11-04T14:51:55.463Z,46.63
2022-11-04T14:54:08.729Z,46.75
2022-11-04T14:56:23.917Z,47.52
2022-11-04T14:58:28.392Z,47.82
2022-11-04T15:00:34.290Z,48.29
2022-11-04T15:02:36.780Z,48.16
2022-11-04T15:04:45.509Z,48.62
2022-11-04T15:07:04.251Z,49.34
2022-11-04T15:09:20.620Z,49.89
2022-11-04T15:11:58.328Z,49.73
2022-11-04T15:14:00.938Z,49.42
2022-11-04T15:16:11.168Z,49.83
2022-11-04T15:18:24.143Z,50.62
2022-11-04T15:20:31.710Z,50.06
2022-11-04T15:22:34.281Z,49.46
2022-11-04T15:24:37.749Z,49.49
2022-11-04T15:26:40.905Z,49.57
2022-11-04T15:28:48.668Z,50.97
2022-11-04T15:31:21.058Z,50.85
2022-11-04T15:33:25.437Z,50.04
2022-11-04T15:35:31.513Z,50.28
2022-11-04T15:37:46.648Z,50.67
2022-11-04T15:39:53.161Z,51.13
2022-11-04T15:42:17.965Z,51.51
2022-11-04T15:44:24.375Z,50.86
2022-11-04T15:46:29.598Z,50.97
2022-11-04T15:48:34.993Z,51.05
2022-11-04T15:50:38.996Z,51.02
2022-11-04T15:52:50.900Z,51.58
2022-11-04T15:54:59.850Z,51.41
2022-11-04T15:57:12.991Z,51.98
2022-11-04T15:59:19.972Z,52.29
2022-11-04T16:01:23.039Z,52.10
2022-11-04T16:03:26.217Z,52.56
2022-11-04T16:05:40.121Z,52.86
2022-11-04T16:07:44.274Z,52.91
2022-11-04T16:09:49.735Z,52.99
2022-11-04T16:12:27.063Z,53.87
2022-11-04T16:14:30.270Z,52.96
2022-11-04T16:16:32.832Z,53.11
2022-11-04T16:18:44.902Z,52.68
2022-11-04T16:20:48.848Z,53.01
2022-11-04T16:23:00.641Z,53.10
2022-11-04T16:25:05.825Z,53.07
2022-11-04T16:27:14.206Z,52.67
2022-11-04T16:29:32.581Z,53.47
2022-11-04T16:31:36.634Z,53.00
2022-11-04T16:33:38.853Z,52.39
2022-11-04T16:35:43.518Z,52.69
2022-11-04T16:37:46.368Z,52.63
2022-11-04T16:39:50.183Z,52.63
2022-11-04T16:41:52.268Z,52.96
2022-11-04T16:43:55.799Z,52.96
2022-11-04T16:45:57.915Z,53.20
2022-11-04T16:48:03.351Z,53.30
2022-11-04T16:50:14.418Z,53.71
2022-11-04T16:52:23.248Z,53.78
2022-11-04T16:54:25.672Z,53.47
2022-11-04T16:56:27.772Z,53.93
2022-11-04T16:58:30.190Z,53.49
2022-11-04T17:00:36.142Z,53.28
2022-11-04T17:02:39.979Z,53.00
2022-11-04T17:04:42.097Z,53.05
2022-11-04T17:06:44.457Z,53.40
2022-11-04T17:08:47.264Z,53.50
2022-11-04T17:10:49.533Z,53.75
2022-11-04T17:12:51.999Z,53.65
2022-11-04T17:14:54.561Z,54.05
2022-11-04T17:16:59.358Z,53.88
2022-11-04T17:19:01.573Z,53.95
2022-11-04T17:21:08.313Z,53.92
2022-11-04T17:23:13.191Z,53.80
2022-11-04T17:25:23.526Z,53.95
2022-11-04T17:27:27.483Z,54.24
2022-11-04T17:29:30.465Z,53.73
2022-11-04T17:31:33.042Z,53.51
2022-11-04T17:33:35.120Z,54.14
2022-11-04T17:35:42.002Z,54.21
2022-11-04T17:37:44.470Z,53.87
2022-11-04T17:39:49.562Z,53.59
2022-11-04T17:42:10.186Z,53.14
2022-11-04T17:44:12.547Z,53.29
2022-11-04T17:46:34.478Z,53.42
2022-11-04T17:48:36.818Z,53.22
2022-11-04T17:50:39.872Z,53.56
2022-11-04T17:52:42.509Z,53.28
2022-11-04T17:54:44.747Z,53.16
2022-11-04T17:56:47.525Z,53.12
2022-11-04T17:58:50.626Z,53.27
2022-11-04T18:00:54.538Z,53.20
2022-11-04T18:02:57.682Z,53.89
2022-11-04T18:05:01.867Z,53.28
2022-11-04T18:07:04.372Z,53.43
2022-11-04T18:09:07.041Z,53.32
2022-11-04T18:11:11.877Z,53.41
2022-11-04T18:13:13.960Z,53.45
2022-11-04T18:15:19.298Z,53.49
2022-11-04T18:17:24.806Z,53.67
2022-11-04T18:20:29.648Z,54.18
2022-11-04T18:22:31.919Z,53.98
2022-11-04T18:24:34.668Z,54.22
2022-11-04T18:26:36.991Z,54.20
2022-11-04T18:28:39.356Z,54.00
2022-11-04T18:30:41.665Z,54.08
2022-11-04T18:32:43.854Z,54.51
2022-11-04T18:34:46.061Z,54.39
2022-11-04T18:36:49.159Z,54.55
2022-11-04T18:38:51.775Z,54.72
2022-11-04T18:40:54.148Z,54.55
2022-11-04T18:42:56.512Z,54.24
2022-11-04T18:44:58.651Z,54.20
2022-11-04T18:47:01.209Z,53.93
2022-11-04T18:49:03.479Z,53.88
2022-11-04T18:51:09.699Z,53.75
2022-11-04T18:53:14.402Z,53.52
2022-11-04T18:55:16.432Z,53.84
2022-11-04T18:57:18.512Z,53.29
2022-11-04T18:59:21.011Z,53.09
2022-11-04T19:01:24.442Z,53.30
2022-11-04T19:03:26.609Z,52.80
2022-11-04T19:05:28.564Z,52.60
2022-11-04T19:07:31.028Z,52.66
2022-11-04T19:09:46.572Z,52.64
2022-11-04T19:12:09.637Z,52.77
2022-11-04T19:14:16.112Z,53.18
2022-11-04T19:16:18.322Z,53.00
2022-11-04T19:18:20.567Z,53.02
2022-11-04T19:20:23.775Z,52.90
2022-11-04T19:22:25.914Z,52.83
2022-11-04T19:24:28.693Z,53.10
2022-11-04T19:26:33.715Z,53.21
2022-11-04T19:28:48.141Z,53.33
2022-11-04T19:31:03.313Z,53.02
2022-11-04T19:33:05.515Z,52.98
2022-11-04T19:35:07.826Z,53.04
2022-11-04T19:37:10.956Z,53.04
2022-11-04T19:39:13.266Z,53.40
2022-11-04T19:41:35.598Z,53.13
2022-11-04T19:43:37.503Z,53.17
2022-11-04T19:45:42.447Z,53.01
2022-11-04T19:47:47.055Z,52.92
2022-11-04T19:49:49.168Z,53.21
2022-11-04T19:51:51.822Z,52.75
2022-11-04T19:53:54.814Z,53.60
2022-11-04T19:55:58.793Z,54.35
2022-11-04T19:58:02.059Z,54.96
2022-11-04T20:00:04.872Z,54.37
2022-11-04T20:02:15.401Z,54.16
2022-11-04T20:04:18.555Z,54.02
2022-11-04T20:06:21.548Z,53.94
2022-11-04T20:08:23.775Z,53.66
2022-11-04T20:10:25.752Z,54.64
2022-11-04T20:12:46.258Z,54.03
2022-11-04T20:14:48.474Z,53.99
2022-11-04T20:16:50.484Z,53.40
2022-11-04T20:18:57.082Z,53.93
2022-11-04T20:20:59.062Z,53.83
2022-11-04T20:23:01.696Z,53.59
2022-11-04T20:25:04.810Z,53.50
2022-11-04T20:27:06.950Z,53.47
2022-11-04T20:29:10.280Z,53.88
2022-11-04T20:31:18.160Z,53.38
2022-11-04T20:33:20.187Z,53.50
2022-11-04T20:35:23.077Z,53.18
2022-11-04T20:37:26.217Z,53.23
2022-11-04T20:39:28.130Z,52.95
2022-11-04T20:41:30.444Z,52.67
2022-11-04T20:43:34.655Z,52.77
2022-11-04T20:45:39.386Z,52.76
2022-11-04T20:47:42.418Z,52.95
2022-11-04T20:49:45.203Z,53.58
2022-11-04T20:51:54.634Z,53.82
2022-11-04T20:54:00.790Z,54.16
2022-11-04T20:56:07.707Z,54.45
2022-11-04T20:58:10.055Z,54.25
2022-11-04T21:00:13.191Z,54.21
2022-11-04T21:02:15.257Z,54.24
2022-11-04T21:04:21.653Z,54.47
2022-11-04T21:06:23.703Z,54.11
2022-11-04T21:08:26.578Z,54.26
2022-11-04T21:10:28.550Z,53.88
2022-11-04T21:12:30.658Z,53.87
2022-11-04T21:14:35.330Z,53.93
2022-11-04T21:16:37.509Z,54.07
2022-11-04T21:18:40.278Z,53.96
2022-11-04T21:20:43.427Z,53.71
2022-11-04T21:22:45.629Z,53.32
2022-11-04T21:24:47.684Z,53.46
2022-11-04T21:26:53.289Z,53.24
2022-11-04T21:29:01.702Z,52.66
2022-11-04T21:31:06.958Z,52.82
2022-11-04T21:33:09.338Z,52.42
2022-11-04T21:35:11.315Z,52.81
2022-11-04T21:37:13.700Z,52.69
2022-11-04T21:39:17.856Z,52.77
2022-11-04T21:41:26.051Z,52.69
2022-11-04T21:43:28.344Z,53.04
2022-11-04T21:45:32.829Z,53.25
2022-11-04T21:47:34.858Z,53.60
2022-11-04T21:49:36.729Z,53.61
2022-11-04T21:51:38.705Z,53.92
2022-11-04T21:53:41.183Z,53.93
2022-11-04T21:55:43.870Z,53.79
2022-11-04T21:57:46.052Z,53.49
2022-11-04T21:59:48.075Z,53.11
2022-11-04T22:01:50.248Z,53.58
2022-11-04T22:03:54.754Z,53.11
2022-11-04T22:06:02.181Z,53.24
2022-11-04T22:08:19.978Z,53.21
2022-11-04T22:10:22.935Z,53.28
2022-11-04T22:12:24.951Z,53.74
2022-11-04T22:14:30.720Z,53.41
2022-11-04T22:16:37.427Z,53.45
2022-11-04T22:18:40.190Z,53.40
2022-11-04T22:20:42.762Z,53.44
2022-11-04T22:22:44.900Z,53.47
2022-11-04T22:25:03.195Z,53.76
2022-11-04T22:27:06.850Z,53.91
2022-11-04T22:29:09.918Z,54.28
2022-11-04T22:31:16.812Z,54.31
2022-11-04T22:33:21.104Z,54.35
2022-11-04T22:35:25.582Z,54.39
2022-11-04T22:37:27.634Z,54.67
2022-11-04T22:39:32.655Z,54.71
2022-11-04T22:41:35.727Z,54.71
2022-11-04T22:43:38.032Z,55.10
2022-11-04T22:45:40.107Z,54.58
2022-11-04T22:47:42.298Z,54.36
2022-11-04T22:49:44.417Z,54.74
2022-11-04T22:51:46.850Z,54.73
2022-11-04T22:53:57.695Z,55.36
2022-11-04T22:56:01.953Z,55.65
2022-11-04T22:58:04.170Z,55.27
2022-11-04T23:00:07.650Z,55.78
2022-11-04T23:02:09.903Z,55.41
2022-11-04T23:04:14.255Z,55.25
2022-11-04T23:06:16.461Z,54.92
2022-11-04T23:08:18.512Z,55.33
2022-11-04T23:10:39.189Z,55.05
2022-11-04T23:13:04.204Z,54.80
2022-11-04T23:15:25.427Z,54.74
2022-11-04T23:17:46.019Z,54.59
2022-11-04T23:19:50.720Z,55.08
2022-11-04T23:22:11.457Z,54.69
2022-11-04T23:24:32.310Z,54.74
2022-11-04T23:26:34.487Z,54.83
2022-11-04T23:28:58.220Z,54.68
2022-11-04T23:31:00.393Z,54.64
2022-11-04T23:33:05.229Z,54.71
2022-11-04T23:35:27.838Z,55.16
2022-11-04T23:37:30.272Z,54.90
2022-11-04T23:39:32.384Z,54.96
2022-11-04T23:41:53.359Z,54.54
2022-11-04T23:43:55.467Z,54.32
2022-11-04T23:46:16.225Z,54.20
2022-11-04T23:48:37.190Z,53.85
2022-11-04T23:50:57.989Z,54.22
2022-11-04T23:53:20.311Z,53.86
2022-11-04T23:55:43.866Z,53.91
2022-11-04T23:58:04.655Z,54.18
